Questions? Feedback? powered by Olark live chat software

iFlightPlanner

 

...

Classic METAR @ Lakeland Linder Regional

Sunday, December 19, 2010 @ 12:21 PM

This was too good not to share!  While many of us are IFR'd in for much of the winter wishing we were in Florida, the crew at Lakeland Linder Regional Airport (KLAL) reminds us it's not always blue skies!  Check out the remark on their METAR observation this morning, it's classic!

» What's the weather like at your home airport?

KLAL 191552Z 32005KT 2SM BR OVC002 15/13 A2991 RMK NOT SUPPOSE TO BE LIKE THIS IN FLA